createdAt,value
2023-03-21T00:00:32.898Z,100781.00
2023-03-21T00:01:36.583Z,100779.16
2023-03-21T00:02:38.416Z,100783.72
2023-03-21T00:03:43.217Z,100772.63
2023-03-21T00:04:52.409Z,100780.19
2023-03-21T00:05:55.833Z,100785.38
2023-03-21T00:06:57.644Z,100782.69
2023-03-21T00:08:01.099Z,100782.03
2023-03-21T00:09:04.595Z,100741.50
2023-03-21T00:10:15.392Z,100768.09
2023-03-21T00:11:20.059Z,100775.47
2023-03-21T00:12:21.865Z,100767.56
2023-03-21T00:13:23.744Z,100784.72
2023-03-21T00:14:26.148Z,100783.03
2023-03-21T00:15:41.290Z,100775.16
2023-03-21T00:16:50.608Z,100775.63
2023-03-21T00:17:58.411Z,100768.56
2023-03-21T00:19:03.291Z,100781.00
2023-03-21T00:20:07.061Z,100774.97
2023-03-21T00:22:37.105Z,100775.63
2023-03-21T00:23:39.011Z,100779.00
2023-03-21T00:24:41.133Z,100779.34
2023-03-21T00:25:43.064Z,100775.31
2023-03-21T00:26:45.006Z,100779.69
2023-03-21T00:28:05.187Z,100782.38
2023-03-21T00:29:08.599Z,100780.00
2023-03-21T00:30:12.184Z,100775.97
2023-03-21T00:31:14.377Z,100778.66
2023-03-21T00:32:17.946Z,100753.81
2023-03-21T00:33:23.008Z,100784.91
2023-03-21T00:34:36.899Z,100779.69
2023-03-21T00:36:06.356Z,100784.72
2023-03-21T00:37:10.085Z,100781.88
2023-03-21T00:38:12.125Z,100777.00
2023-03-21T00:39:15.395Z,100781.38
2023-03-21T00:40:26.590Z,100784.25
2023-03-21T00:41:42.100Z,100784.41
2023-03-21T00:42:44.889Z,100777.66
2023-03-21T00:43:46.692Z,100783.41
2023-03-21T00:44:48.493Z,100790.66
2023-03-21T00:45:51.736Z,100757.69
2023-03-21T00:47:06.262Z,100778.91
2023-03-21T00:48:10.501Z,100781.91
2023-03-21T00:49:12.435Z,100786.44
2023-03-21T00:50:16.410Z,100790.00
2023-03-21T00:51:27.222Z,100787.47
2023-03-21T00:52:40.218Z,100780.03
2023-03-21T00:53:43.136Z,100787.09
2023-03-21T00:54:45.339Z,100785.44
2023-03-21T00:55:48.225Z,100784.75
2023-03-21T00:56:50.036Z,100783.09
2023-03-21T00:58:01.092Z,100781.25
2023-03-21T00:59:04.348Z,100775.66
2023-03-21T01:00:10.652Z,100773.31
2023-03-21T01:01:12.666Z,100775.84
2023-03-21T01:02:15.173Z,100783.94
2023-03-21T01:03:24.845Z,100784.09
2023-03-21T01:04:28.359Z,100777.69
2023-03-21T01:05:49.644Z,100778.41
2023-03-21T01:06:51.453Z,100775.50
2023-03-21T01:07:53.414Z,100782.25
2023-03-21T01:08:55.777Z,100779.72
2023-03-21T01:09:57.569Z,100788.81
2023-03-21T01:11:04.952Z,100783.44
2023-03-21T01:12:06.862Z,100779.91
2023-03-21T01:13:10.281Z,100779.06
2023-03-21T01:14:22.459Z,100778.25
2023-03-21T01:15:25.470Z,100778.72
2023-03-21T01:16:27.772Z,100775.34
2023-03-21T01:17:29.675Z,100771.16
2023-03-21T01:18:32.707Z,100770.97
2023-03-21T01:19:48.621Z,100777.22
2023-03-21T01:20:54.054Z,100782.06
2023-03-21T01:21:56.921Z,100773.31
2023-03-21T01:22:59.685Z,100775.34
2023-03-21T01:24:01.975Z,100772.31
2023-03-21T01:25:21.079Z,100762.72
2023-03-21T01:26:24.020Z,100772.31
2023-03-21T01:27:25.860Z,100764.06
2023-03-21T01:28:28.800Z,100768.28
2023-03-21T01:29:30.789Z,100757.31
2023-03-21T01:30:36.962Z,100769.63
2023-03-21T01:31:43.717Z,100769.97
2023-03-21T01:32:45.550Z,100764.78
2023-03-21T01:33:47.462Z,100763.22
2023-03-21T01:34:51.670Z,100766.59
2023-03-21T01:36:10.005Z,100771.16
2023-03-21T01:37:14.929Z,100771.66
2023-03-21T01:38:22.598Z,100779.72
2023-03-21T01:39:24.380Z,100770.47
2023-03-21T01:40:27.263Z,100760.38
2023-03-21T01:41:44.689Z,100776.22
2023-03-21T01:43:01.858Z,100772.31
2023-03-21T01:44:04.565Z,100776.22
2023-03-21T01:45:49.662Z,100776.69
2023-03-21T01:47:09.634Z,100777.34
2023-03-21T01:48:23.476Z,100779.03
2023-03-21T01:49:36.415Z,100775.84
2023-03-21T01:50:56.650Z,100775.66
2023-03-21T01:52:23.612Z,100782.25
2023-03-21T01:53:36.618Z,100784.94
2023-03-21T01:54:41.229Z,100781.75
2023-03-21T01:55:43.382Z,100779.25
2023-03-21T01:57:09.936Z,100791.53
2023-03-21T01:58:14.170Z,100779.06
2023-03-21T01:59:29.381Z,100777.38
2023-03-21T02:01:01.160Z,100769.97
2023-03-21T02:02:20.871Z,100778.72
2023-03-21T02:03:50.937Z,100789.13
2023-03-21T02:05:03.828Z,100770.31
2023-03-21T02:06:12.728Z,100771.66
2023-03-21T02:07:25.677Z,100781.09
2023-03-21T02:08:39.106Z,100778.41
2023-03-21T02:09:49.059Z,100777.53
2023-03-21T02:10:55.277Z,100777.53
2023-03-21T02:12:09.310Z,100772.16
2023-03-21T02:13:11.621Z,100775.19
2023-03-21T02:14:28.456Z,100778.06
2023-03-21T02:16:10.532Z,100774.19
2023-03-21T02:17:27.133Z,100776.00
2023-03-21T02:18:55.250Z,100776.69
2023-03-21T02:20:17.779Z,100780.75
2023-03-21T02:21:41.230Z,100773.69
2023-03-21T02:23:04.961Z,100784.44
2023-03-21T02:24:21.749Z,100779.56
2023-03-21T02:25:29.685Z,100778.41
2023-03-21T02:27:01.351Z,100781.41
2023-03-21T02:28:31.145Z,100783.44
2023-03-21T02:29:48.229Z,100783.63
2023-03-21T02:31:37.784Z,100777.03
2023-03-21T02:33:00.765Z,100784.94
2023-03-21T02:34:24.072Z,100782.63
2023-03-21T02:36:11.974Z,100784.75
2023-03-21T02:37:17.127Z,100787.47
2023-03-21T02:38:24.175Z,100780.06
2023-03-21T02:39:52.006Z,100781.75
2023-03-21T02:41:01.717Z,100781.09
2023-03-21T02:42:13.684Z,100778.88
2023-03-21T02:43:47.943Z,100785.97
2023-03-21T02:45:19.356Z,100780.75
2023-03-21T02:46:42.972Z,100775.34
2023-03-21T02:47:53.243Z,100786.13
2023-03-21T02:49:08.637Z,100774.50
2023-03-21T02:50:19.059Z,100778.72
2023-03-21T02:51:24.872Z,100773.03
2023-03-21T02:52:38.759Z,100775.88
2023-03-21T02:53:54.983Z,100779.06
2023-03-21T02:55:25.979Z,100777.53
2023-03-21T02:56:40.468Z,100774.84
2023-03-21T02:57:45.418Z,100774.34
2023-03-21T02:58:49.481Z,100773.38
2023-03-21T02:59:56.885Z,100777.56
2023-03-21T03:01:09.265Z,100774.69
2023-03-21T03:02:23.548Z,100773.84
2023-03-21T03:03:34.123Z,100763.59
2023-03-21T03:04:37.512Z,100770.31
2023-03-21T03:05:49.710Z,100753.34
2023-03-21T03:07:10.660Z,100762.59
2023-03-21T03:08:53.073Z,100769.47
2023-03-21T03:10:26.807Z,100771.66
2023-03-21T03:11:33.143Z,100779.06
2023-03-21T03:12:46.997Z,100774.19
2023-03-21T03:16:05.375Z,100773.31
2023-03-21T03:17:17.318Z,100771.66
2023-03-21T03:18:41.787Z,100774.69
2023-03-21T03:19:55.303Z,100768.47
2023-03-21T03:21:06.712Z,100773.31
2023-03-21T03:22:28.049Z,100772.50
2023-03-21T03:24:07.291Z,100773.31
2023-03-21T03:25:23.153Z,100771.16
2023-03-21T03:26:40.900Z,100777.38
2023-03-21T03:27:44.929Z,100776.03
2023-03-21T03:28:51.433Z,100751.50
2023-03-21T03:29:55.806Z,100775.72
2023-03-21T03:31:09.211Z,100767.63
2023-03-21T03:32:24.389Z,100744.13
2023-03-21T03:33:27.406Z,100769.31
2023-03-21T03:34:34.507Z,100769.66
2023-03-21T03:35:37.890Z,100764.28
2023-03-21T03:36:44.504Z,100770.69
2023-03-21T03:37:56.611Z,100769.66
2023-03-21T03:39:04.053Z,100773.03
2023-03-21T03:40:11.407Z,100769.66
2023-03-21T03:41:29.380Z,100766.63
2023-03-21T03:42:40.864Z,100770.13
2023-03-21T03:43:56.614Z,100778.06
2023-03-21T03:45:01.540Z,100780.75
2023-03-21T03:46:13.445Z,100773.03
2023-03-21T03:47:32.358Z,100776.38
2023-03-21T03:48:52.252Z,100780.75
2023-03-21T03:50:06.370Z,100776.03
2023-03-21T03:51:48.341Z,100784.09
2023-03-21T03:53:28.753Z,100784.59
2023-03-21T03:54:38.396Z,100783.63
2023-03-21T03:55:41.824Z,100782.94
2023-03-21T03:56:47.998Z,100784.16
2023-03-21T03:57:50.073Z,100788.16
2023-03-21T03:58:52.190Z,100797.25
2023-03-21T03:59:59.005Z,100794.56
2023-03-21T04:01:17.961Z,100793.38
2023-03-21T04:02:20.543Z,100795.38
2023-03-21T04:03:23.845Z,100770.72
2023-03-21T04:04:29.328Z,100787.66
2023-03-21T04:05:32.595Z,100782.47
2023-03-21T04:06:34.465Z,100753.41
2023-03-21T04:07:36.753Z,100778.59
2023-03-21T04:08:38.707Z,100777.91
2023-03-21T04:09:44.560Z,100787.84
2023-03-21T04:10:50.291Z,100785.81
2023-03-21T04:11:52.981Z,100784.97
2023-03-21T04:12:55.193Z,100782.47
2023-03-21T04:14:08.003Z,100785.63
2023-03-21T04:15:11.368Z,100781.25
2023-03-21T04:16:19.372Z,100775.03
2023-03-21T04:17:21.647Z,100771.34
2023-03-21T04:18:23.835Z,100772.50
2023-03-21T04:19:26.645Z,100773.38
2023-03-21T04:20:36.634Z,100776.06
2023-03-21T04:21:39.876Z,100781.09
2023-03-21T04:22:42.090Z,100788.31
2023-03-21T04:23:44.195Z,100782.13
2023-03-21T04:24:45.969Z,100752.22
2023-03-21T04:25:56.231Z,100781.13
2023-03-21T04:27:05.971Z,100780.91
2023-03-21T04:28:14.201Z,100787.97
2023-03-21T04:29:23.047Z,100793.38
2023-03-21T04:30:52.077Z,100796.75
2023-03-21T04:32:03.566Z,100803.63
2023-03-21T04:33:05.852Z,100792.53
2023-03-21T04:34:12.642Z,100807.03
2023-03-21T04:35:18.810Z,100798.94
2023-03-21T04:36:39.585Z,100794.72
2023-03-21T04:37:43.445Z,100804.13
2023-03-21T04:38:49.152Z,100803.31
2023-03-21T04:39:52.322Z,100809.88
2023-03-21T04:40:54.201Z,100801.13
2023-03-21T04:41:57.022Z,100802.16
2023-03-21T04:43:01.298Z,100803.16
2023-03-21T04:44:03.703Z,100795.63
2023-03-21T04:45:06.179Z,100800.47
2023-03-21T04:46:08.041Z,100802.34
2023-03-21T04:47:10.113Z,100807.72
2023-03-21T04:48:14.300Z,100801.47
2023-03-21T04:49:16.260Z,100792.25
2023-03-21T04:50:19.075Z,100792.25
2023-03-21T04:51:21.051Z,100791.75
2023-03-21T04:52:25.242Z,100807.72
2023-03-21T04:53:27.404Z,100802.34
2023-03-21T04:54:29.358Z,100797.97
2023-03-21T04:55:32.462Z,100805.03
2023-03-21T04:56:36.178Z,100805.84
2023-03-21T04:57:38.804Z,100788.56
2023-03-21T04:58:41.315Z,100801.31
2023-03-21T04:59:43.235Z,100784.19
2023-03-21T05:00:45.154Z,100805.03
2023-03-21T05:01:47.432Z,100795.25
2023-03-21T05:02:49.430Z,100794.75
2023-03-21T05:03:51.917Z,100799.78
2023-03-21T05:04:53.774Z,100794.41
2023-03-21T05:05:55.679Z,100795.25
2023-03-21T05:06:59.028Z,100787.34
2023-03-21T05:08:00.918Z,100791.56
2023-03-21T05:09:07.186Z,100788.19
2023-03-21T05:10:12.330Z,100784.50
2023-03-21T05:11:16.116Z,100794.06
2023-03-21T05:12:19.445Z,100777.78
2023-03-21T05:13:21.220Z,100781.59
2023-03-21T05:14:26.224Z,100784.50
2023-03-21T05:15:28.167Z,100785.16
2023-03-21T05:16:30.969Z,100786.53
2023-03-21T05:17:34.227Z,100786.16
2023-03-21T05:18:38.829Z,100782.16
2023-03-21T05:19:47.607Z,100777.75
2023-03-21T05:20:54.205Z,100787.84
2023-03-21T05:21:56.445Z,100786.84
2023-03-21T05:23:01.501Z,100768.84
2023-03-21T05:24:03.639Z,100778.91
2023-03-21T05:25:08.716Z,100779.94
2023-03-21T05:26:25.210Z,100781.09
2023-03-21T05:27:36.026Z,100775.88
2023-03-21T05:28:44.615Z,100788.50
2023-03-21T05:29:46.700Z,100779.56
2023-03-21T05:30:48.659Z,100786.84
2023-03-21T05:31:51.697Z,100782.47
2023-03-21T05:32:54.799Z,100778.91
2023-03-21T05:33:56.698Z,100784.31
2023-03-21T05:34:58.786Z,100785.50
2023-03-21T05:36:01.008Z,100786.16
2023-03-21T05:37:06.117Z,100789.88
2023-03-21T05:38:23.427Z,100776.88
2023-03-21T05:39:27.665Z,100774.72
2023-03-21T05:40:38.961Z,100769.34
2023-03-21T05:41:41.706Z,100784.50
2023-03-21T05:42:44.218Z,100770.72
2023-03-21T05:43:56.363Z,100783.47
2023-03-21T05:44:58.653Z,100783.63
2023-03-21T05:46:08.912Z,100782.81
2023-03-21T05:47:11.541Z,100777.59
2023-03-21T05:48:19.606Z,100781.13
2023-03-21T05:49:44.306Z,100779.09
2023-03-21T05:50:46.216Z,100783.84
2023-03-21T05:51:53.291Z,100791.91
2023-03-21T05:52:55.280Z,100781.47
2023-03-21T05:53:57.326Z,100788.91
2023-03-21T05:54:59.113Z,100786.38
2023-03-21T05:56:03.443Z,100791.75
2023-03-21T05:57:15.785Z,100793.28
2023-03-21T05:58:28.797Z,100791.75
2023-03-21T05:59:30.976Z,100786.19
2023-03-21T06:00:33.103Z,100795.47
2023-03-21T06:01:48.008Z,100798.34
2023-03-21T06:02:51.455Z,100815.16
2023-03-21T06:04:09.762Z,100811.28
2023-03-21T06:05:11.617Z,100807.09
2023-03-21T06:06:13.610Z,100801.84
2023-03-21T06:07:24.090Z,100807.09
2023-03-21T06:08:25.930Z,100802.72
2023-03-21T06:09:28.050Z,100810.78
2023-03-21T06:10:34.136Z,100805.06
2023-03-21T06:11:42.131Z,100804.03
2023-03-21T06:13:06.571Z,100805.69
2023-03-21T06:14:09.105Z,100800.31
2023-03-21T06:15:11.771Z,100800.31
2023-03-21T06:16:33.815Z,100800.94
2023-03-21T06:17:36.145Z,100803.63
2023-03-21T06:18:44.274Z,100796.56
2023-03-21T06:19:54.508Z,100806.97
2023-03-21T06:21:03.358Z,100797.41
2023-03-21T06:22:06.802Z,100778.06
2023-03-21T06:23:11.359Z,100809.63
2023-03-21T06:24:13.716Z,100814.50
2023-03-21T06:25:16.839Z,100811.31
2023-03-21T06:26:22.992Z,100818.84
2023-03-21T06:27:26.432Z,100817.47
2023-03-21T06:28:30.386Z,100822.19
2023-03-21T06:29:32.191Z,100816.81
2023-03-21T06:30:34.029Z,100814.06
2023-03-21T06:31:57.360Z,100815.84
2023-03-21T06:32:59.181Z,100815.16
2023-03-21T06:34:01.014Z,100813.13
2023-03-21T06:35:03.099Z,100823.56
2023-03-21T06:36:05.191Z,100824.88
2023-03-21T06:37:09.884Z,100818.13
2023-03-21T06:38:12.987Z,100818.78
2023-03-21T06:39:16.176Z,100814.72
2023-03-21T06:40:19.645Z,100822.28
2023-03-21T06:41:21.608Z,100821.91
2023-03-21T06:42:33.686Z,100800.88
2023-03-21T06:43:42.055Z,100818.97
2023-03-21T06:44:43.892Z,100821.66
2023-03-21T06:45:49.305Z,100812.75
2023-03-21T06:46:52.009Z,100809.84
2023-03-21T06:47:54.495Z,100818.25
2023-03-21T06:49:20.085Z,100814.47
2023-03-21T06:50:21.992Z,100815.31
2023-03-21T06:51:24.700Z,100815.31
2023-03-21T06:52:41.588Z,100819.97
2023-03-21T06:53:44.630Z,100812.06
2023-03-21T06:54:56.343Z,100815.06
2023-03-21T06:55:58.321Z,100815.06
2023-03-21T06:57:00.350Z,100816.72
2023-03-21T06:58:05.814Z,100814.69
2023-03-21T06:59:08.661Z,100819.06
2023-03-21T07:00:22.888Z,100819.72
2023-03-21T07:01:27.727Z,100814.31
2023-03-21T07:02:38.870Z,100825.41
2023-03-21T07:03:45.645Z,100819.84
2023-03-21T07:04:47.486Z,100819.84
2023-03-21T07:05:54.339Z,100803.91
2023-03-21T07:06:57.217Z,100814.25
2023-03-21T07:08:01.243Z,100788.78
2023-03-21T07:09:05.928Z,100821.16
2023-03-21T07:10:09.615Z,100820.31
2023-03-21T07:11:27.325Z,100817.88
2023-03-21T07:12:34.224Z,100823.50
2023-03-21T07:13:48.772Z,100821.31
2023-03-21T07:14:51.202Z,100825.00
2023-03-21T07:15:54.556Z,100823.28
2023-03-21T07:16:56.904Z,100821.47
2023-03-21T07:17:58.775Z,100828.69
2023-03-21T07:19:00.807Z,100815.25
2023-03-21T07:20:06.492Z,100824.31
2023-03-21T07:21:09.270Z,100818.25
2023-03-21T07:22:11.186Z,100818.78
2023-03-21T07:23:13.213Z,100819.59
2023-03-21T07:24:15.456Z,100817.06
2023-03-21T07:25:17.638Z,100820.59
2023-03-21T07:26:19.659Z,100818.25
2023-03-21T07:27:21.457Z,100817.88
2023-03-21T07:28:24.102Z,100815.56
2023-03-21T07:29:26.022Z,100813.50
2023-03-21T07:30:28.040Z,100819.94
2023-03-21T07:31:29.939Z,100810.53
2023-03-21T07:32:35.519Z,100813.44
2023-03-21T07:33:37.950Z,100822.63
2023-03-21T07:34:39.907Z,100819.28
2023-03-21T07:35:42.034Z,100818.25
2023-03-21T07:36:43.917Z,100811.19
2023-03-21T07:37:46.252Z,100809.03
2023-03-21T07:38:51.453Z,100819.28
2023-03-21T07:39:57.727Z,100815.56
2023-03-21T07:41:00.898Z,100813.88
2023-03-21T07:42:06.264Z,100798.78
2023-03-21T07:43:14.650Z,100815.56
2023-03-21T07:44:18.749Z,100822.84
2023-03-21T07:45:22.080Z,100811.19
2023-03-21T07:46:24.085Z,100814.72
2023-03-21T07:47:25.936Z,100815.75
2023-03-21T07:48:28.504Z,100821.97
2023-03-21T07:49:31.184Z,100813.06
2023-03-21T07:50:33.020Z,100815.75
2023-03-21T07:51:36.035Z,100806.63
2023-03-21T07:52:37.826Z,100813.88
2023-03-21T07:53:42.031Z,100818.25
2023-03-21T07:54:44.038Z,100815.56
2023-03-21T07:55:50.165Z,100809.34
2023-03-21T07:56:51.943Z,100817.22
2023-03-21T07:57:54.139Z,100807.44
2023-03-21T07:58:56.295Z,100816.22
2023-03-21T07:59:58.250Z,100812.84
2023-03-21T08:01:00.700Z,100801.97
2023-03-21T08:02:02.610Z,100814.53
2023-03-21T08:03:04.581Z,100807.44
2023-03-21T08:04:06.830Z,100812.69
2023-03-21T08:05:11.562Z,100809.13
2023-03-21T08:06:13.668Z,100807.09
2023-03-21T08:07:15.768Z,100812.47
2023-03-21T08:08:17.833Z,100807.09
2023-03-21T08:09:19.754Z,100807.09
2023-03-21T08:10:21.605Z,100804.38
2023-03-21T08:11:24.723Z,100798.16
2023-03-21T08:12:26.735Z,100798.84
2023-03-21T08:13:28.612Z,100814.19
2023-03-21T08:14:30.619Z,100797.00
2023-03-21T08:15:32.454Z,100794.31
2023-03-21T08:16:34.292Z,100793.44
2023-03-21T08:17:39.949Z,100799.69
2023-03-21T08:18:42.796Z,100801.38
2023-03-21T08:19:45.127Z,100793.94
2023-03-21T08:20:55.533Z,100797.31
2023-03-21T08:21:59.837Z,100799.34
2023-03-21T08:23:02.060Z,100801.00
2023-03-21T08:24:03.979Z,100797.66
2023-03-21T08:25:08.151Z,100795.97
2023-03-21T08:26:10.422Z,100799.50
2023-03-21T08:27:12.639Z,100778.50
2023-03-21T08:28:14.421Z,100797.66
2023-03-21T08:29:16.341Z,100801.38
2023-03-21T08:30:24.136Z,100799.69
2023-03-21T08:31:26.199Z,100793.59
2023-03-21T08:32:31.336Z,100804.72
2023-03-21T08:33:33.145Z,100798.47
2023-03-21T08:34:35.642Z,100790.56
2023-03-21T08:35:40.412Z,100800.16
2023-03-21T08:36:42.773Z,100797.66
2023-03-21T08:37:44.935Z,100795.97
2023-03-21T08:38:48.499Z,100799.34
2023-03-21T08:39:50.426Z,100800.16
2023-03-21T08:40:52.349Z,100794.97
2023-03-21T08:41:54.715Z,100796.28
2023-03-21T08:42:56.669Z,100801.19
2023-03-21T08:43:58.545Z,100792.94
2023-03-21T08:45:00.374Z,100800.16
2023-03-21T08:46:04.248Z,100797.47
2023-03-21T08:47:06.610Z,100794.75
2023-03-21T08:48:08.458Z,100790.22
2023-03-21T08:49:10.358Z,100792.91
2023-03-21T08:50:15.621Z,100787.19
2023-03-21T08:51:17.413Z,100798.09
2023-03-21T08:52:19.218Z,100792.91
2023-03-21T08:53:21.197Z,100797.28
2023-03-21T08:54:23.432Z,100798.97
2023-03-21T08:55:25.609Z,100797.28
2023-03-21T08:56:27.480Z,100792.72
2023-03-21T08:57:30.481Z,100784.97
2023-03-21T08:58:32.319Z,100791.03
2023-03-21T08:59:34.870Z,100790.22
2023-03-21T09:00:36.665Z,100792.91
2023-03-21T09:01:38.542Z,100780.59
2023-03-21T09:02:45.125Z,100790.22
2023-03-21T09:03:46.966Z,100788.81
2023-03-21T09:04:48.943Z,100790.66
2023-03-21T09:05:54.033Z,100780.22
2023-03-21T09:06:56.370Z,100789.63
2023-03-21T09:07:58.216Z,100794.22
2023-03-21T09:09:00.082Z,100781.44
2023-03-21T09:10:22.147Z,100790.66
2023-03-21T09:11:24.227Z,100791.78
2023-03-21T09:12:26.602Z,100783.41
2023-03-21T09:13:28.471Z,100785.91
2023-03-21T09:14:30.301Z,100777.34
2023-03-21T09:15:32.121Z,100776.06
2023-03-21T09:16:34.599Z,100784.22
2023-03-21T09:17:36.493Z,100786.47
2023-03-21T09:18:49.550Z,100790.66
2023-03-21T09:19:53.559Z,100790.28
2023-03-21T09:20:55.588Z,100788.63
2023-03-21T09:21:58.018Z,100795.88
2023-03-21T09:23:01.768Z,100789.84
2023-03-21T09:24:05.706Z,100791.50
2023-03-21T09:25:08.515Z,100780.44
2023-03-21T09:26:11.433Z,100786.28
2023-03-21T09:27:23.173Z,100778.91
2023-03-21T09:28:25.104Z,100788.63
2023-03-21T09:29:27.210Z,100784.22
2023-03-21T09:30:31.648Z,100781.72
2023-03-21T09:31:34.031Z,100785.25
2023-03-21T09:32:37.151Z,100780.88
2023-03-21T09:33:43.324Z,100784.44
2023-03-21T09:34:46.026Z,100783.59
2023-03-21T09:35:49.551Z,100779.03
2023-03-21T09:36:57.100Z,100786.13
2023-03-21T09:37:59.285Z,100787.97
2023-03-21T09:39:01.703Z,100786.13
2023-03-21T09:40:09.224Z,100784.44
2023-03-21T09:41:41.666Z,100782.00
2023-03-21T09:42:52.111Z,100779.97
2023-03-21T09:43:53.868Z,100773.72
2023-03-21T09:45:18.880Z,100769.53
2023-03-21T09:46:32.676Z,100771.00
2023-03-21T09:47:49.709Z,100768.50
2023-03-21T09:48:59.929Z,100771.00
2023-03-21T09:50:14.767Z,100765.16
2023-03-21T09:51:19.056Z,100772.03
2023-03-21T09:52:41.329Z,100766.84
2023-03-21T09:53:47.916Z,100757.44
2023-03-21T09:54:50.145Z,100775.75
2023-03-21T09:55:54.335Z,100772.41
2023-03-21T09:57:01.154Z,100762.34
2023-03-21T09:58:05.988Z,100766.56
2023-03-21T09:59:18.296Z,100764.66
2023-03-21T10:00:29.929Z,100768.22
2023-03-21T10:01:41.788Z,100765.91
2023-03-21T10:02:51.909Z,100762.63
2023-03-21T10:03:55.977Z,100753.97
2023-03-21T10:05:00.307Z,100769.06
2023-03-21T10:06:10.980Z,100754.78
2023-03-21T10:07:18.948Z,100748.56
2023-03-21T10:08:27.584Z,100752.78
2023-03-21T10:09:32.628Z,100763.84
2023-03-21T10:11:03.931Z,100751.66
2023-03-21T10:12:14.859Z,100752.69
2023-03-21T10:13:31.320Z,100752.84
2023-03-21T10:14:46.340Z,100752.69
2023-03-21T10:15:49.084Z,100757.44
2023-03-21T10:16:58.156Z,100757.81
2023-03-21T10:18:07.252Z,100744.53
2023-03-21T10:19:13.895Z,100753.59
2023-03-21T10:20:18.183Z,100749.88
2023-03-21T10:21:51.494Z,100750.06
2023-03-21T10:22:47.754Z,100748.84
2023-03-21T10:23:52.054Z,100756.13
2023-03-21T10:24:53.905Z,100750.72
2023-03-21T10:25:59.924Z,100745.69
2023-03-21T10:27:03.598Z,100741.97
2023-03-21T10:28:07.648Z,100756.50
2023-03-21T10:29:12.706Z,100752.78
2023-03-21T10:30:28.468Z,100739.91
2023-03-21T10:31:31.590Z,100747.38
2023-03-21T10:32:34.447Z,100748.03
2023-03-21T10:33:43.863Z,100738.41
2023-03-21T10:34:50.728Z,100738.41
2023-03-21T10:35:57.270Z,100740.94
2023-03-21T10:37:03.591Z,100736.56
2023-03-21T10:38:07.267Z,100743.66
2023-03-21T10:39:26.008Z,100741.97
2023-03-21T10:40:28.096Z,100737.38
2023-03-21T10:41:30.119Z,100739.91
2023-03-21T10:42:33.921Z,100737.75
2023-03-21T10:43:38.224Z,100740.28
2023-03-21T10:44:40.024Z,100739.25
2023-03-21T10:45:41.932Z,100738.59
2023-03-21T10:46:59.006Z,100740.28
2023-03-21T10:48:08.188Z,100727.44
2023-03-21T10:49:10.130Z,100737.22
2023-03-21T10:50:16.210Z,100725.75
2023-03-21T10:51:31.895Z,100727.44
2023-03-21T10:52:34.965Z,100727.25
2023-03-21T10:53:41.282Z,100728.47
2023-03-21T10:54:45.829Z,100731.16
2023-03-21T10:55:52.494Z,100721.69
2023-03-21T10:56:58.534Z,100730.13
2023-03-21T10:58:08.700Z,100731.97
2023-03-21T10:59:20.409Z,100719.69
2023-03-21T11:00:26.308Z,100729.94
2023-03-21T11:01:41.992Z,100711.09
2023-03-21T11:02:49.823Z,100717.31
2023-03-21T11:03:58.141Z,100723.72
2023-03-21T11:05:07.728Z,100720.38
2023-03-21T11:06:22.735Z,100725.75
2023-03-21T11:07:31.099Z,100722.88
2023-03-21T11:08:39.667Z,100728.47
2023-03-21T11:09:47.333Z,100725.75
2023-03-21T11:11:02.737Z,100711.28
2023-03-21T11:12:14.335Z,100730.31
2023-03-21T11:13:25.770Z,100717.53
2023-03-21T11:14:46.178Z,100724.75
2023-03-21T11:16:07.278Z,100727.44
2023-03-21T11:17:18.265Z,100726.41
2023-03-21T11:18:23.156Z,100729.50
2023-03-21T11:19:33.554Z,100717.53
2023-03-21T11:20:43.546Z,100721.41
2023-03-21T11:21:45.677Z,100718.72
2023-03-21T11:22:48.959Z,100719.38
2023-03-21T11:23:52.898Z,100722.44
2023-03-21T11:25:00.506Z,100715.09
2023-03-21T11:26:03.795Z,100709.50
2023-03-21T11:27:07.815Z,100707.84
2023-03-21T11:28:15.970Z,100717.25
2023-03-21T11:29:36.417Z,100706.81
2023-03-21T11:30:59.056Z,100715.66
2023-03-21T11:32:22.738Z,100719.19
2023-03-21T11:33:51.038Z,100709.88
2023-03-21T11:35:06.137Z,100712.44
2023-03-21T11:36:32.223Z,100709.56
2023-03-21T11:37:39.482Z,100712.56
2023-03-21T11:38:41.386Z,100699.81
2023-03-21T11:39:44.910Z,100717.69
2023-03-21T11:40:57.008Z,100709.78
2023-03-21T11:41:59.160Z,100709.59
2023-03-21T11:43:22.297Z,100712.13
2023-03-21T11:44:33.807Z,100710.25
2023-03-21T11:45:36.696Z,100708.56
2023-03-21T11:46:41.153Z,100711.84
2023-03-21T11:47:44.074Z,100713.53
2023-03-21T11:48:50.412Z,100711.00
2023-03-21T11:49:58.407Z,100705.13
2023-03-21T11:51:24.561Z,100706.88
2023-03-21T11:52:38.638Z,100700.56
2023-03-21T11:53:48.494Z,100713.53
2023-03-21T11:55:25.740Z,100705.69
2023-03-21T11:56:40.460Z,100708.19
2023-03-21T11:58:28.916Z,100706.19
2023-03-21T11:59:57.124Z,100698.25
2023-03-21T12:01:10.200Z,100699.06
2023-03-21T12:02:23.007Z,100696.94
2023-03-21T12:03:47.504Z,100694.41
2023-03-21T12:04:59.045Z,100690.69
2023-03-21T12:06:05.277Z,100677.66
2023-03-21T12:07:41.564Z,100691.72
2023-03-21T12:08:49.078Z,100676.53
2023-03-21T12:10:32.600Z,100680.91
2023-03-21T12:11:40.299Z,100673.47
2023-03-21T12:13:06.240Z,100671.25
2023-03-21T12:14:17.112Z,100666.59
2023-03-21T12:15:35.811Z,100677.56
2023-03-21T12:17:13.352Z,100675.88
2023-03-21T12:18:31.725Z,100681.56
2023-03-21T12:19:45.457Z,100672.81
2023-03-21T12:21:03.982Z,100668.44
2023-03-21T12:22:24.305Z,100685.66
2023-03-21T12:23:49.373Z,100678.22
2023-03-21T12:24:58.762Z,100668.66
2023-03-21T12:26:03.559Z,100678.78
2023-03-21T12:27:11.365Z,100680.84
2023-03-21T12:28:52.060Z,100674.03
2023-03-21T12:30:11.589Z,100679.25
2023-03-21T12:31:29.947Z,100682.16
2023-03-21T12:32:40.912Z,100664.44
2023-03-21T12:34:03.584Z,100672.25
2023-03-21T12:35:33.477Z,100670.50
2023-03-21T12:36:48.457Z,100667.41
2023-03-21T12:38:24.684Z,100655.31
2023-03-21T12:39:33.257Z,100667.13
2023-03-21T12:40:37.742Z,100666.50
2023-03-21T12:42:02.345Z,100662.13
2023-03-21T12:43:19.439Z,100663.63
2023-03-21T12:44:24.421Z,100660.44
2023-03-21T12:45:45.851Z,100649.75
2023-03-21T12:47:11.300Z,100648.44
2023-03-21T12:48:19.438Z,100657.75
2023-03-21T12:49:36.027Z,100659.78
2023-03-21T12:50:39.075Z,100649.00
2023-03-21T12:51:56.601Z,100642.66
2023-03-21T12:53:30.374Z,100648.16
2023-03-21T12:54:38.207Z,100647.78
2023-03-21T12:55:41.875Z,100638.75
2023-03-21T12:57:01.921Z,100653.56
2023-03-21T12:58:25.651Z,100636.91
2023-03-21T12:59:31.754Z,100648.81
2023-03-21T13:00:44.233Z,100644.63
2023-03-21T13:01:51.650Z,100646.84
2023-03-21T13:02:58.941Z,100644.81
2023-03-21T13:04:09.598Z,100648.34
2023-03-21T13:05:27.673Z,100649.38